Time;durP1;ratioP1;P1;durP2;ratioP2;P2;SDS_P1;SDS_P2;PMS_P1;PMS_P2;Temp;Humidity;BMP_temperature;BMP_pressure;BME280_temperature;BME280_humidity;BME280_pressure;Samples;Min_cycle;Max_cycle;Signal;HPM_P1;HPM_P2
2022/04/24 00:01:58;;;;;;;21.95;5.50;;;;;;;;;;4936265;29;20044;-73
2022/04/24 00:04:24;;;;;;;18.30;5.13;;;;;;;;;;4936080;29;20418;-72
2022/04/24 00:06:52;;;;;;;19.27;5.30;;;;;;;;;;4934243;29;20510;-69
2022/04/24 00:09:20;;;;;;;16.55;5.55;;;;;;;;;;4933039;29;20040;-73
2022/04/24 00:11:47;;;;;;;18.90;5.47;;;;;;;;;;4935645;29;20035;-73
2022/04/24 00:14:14;;;;;;;16.23;4.70;;;;;;;;;;4935198;29;20107;-73
2022/04/24 00:16:41;;;;;;;13.23;4.55;;;;;;;;;;4935461;28;20538;-74
2022/04/24 00:19:07;;;;;;;14.68;5.13;;;;;;;;;;4935600;29;20035;-73
2022/04/24 00:21:33;;;;;;;19.67;6.38;;;;;;;;;;4935691;29;20064;-72
2022/04/24 00:23:59;;;;;;;22.58;5.70;;;;;;;;;;4935672;29;20032;-70
2022/04/24 00:26:25;;;;;;;20.52;6.20;;;;;;;;;;4935815;29;20082;-68
2022/04/24 00:28:51;;;;;;;18.63;4.72;;;;;;;;;;4934108;29;20119;-66
2022/04/24 00:31:17;;;;;;;18.45;5.35;;;;;;;;;;4935454;29;20047;-72
2022/04/24 00:33:42;;;;;;;22.58;5.00;;;;;;;;;;4933875;29;20031;-68
2022/04/24 00:36:08;;;;;;;18.10;5.40;;;;;;;;;;4934033;29;20028;-72
2022/04/24 00:38:35;;;;;;;17.90;4.90;;;;;;;;;;4934419;29;20423;-74
2022/04/24 00:41:01;;;;;;;27.02;5.82;;;;;;;;;;4934192;29;20032;-71
2022/04/24 00:43:27;;;;;;;21.08;5.60;;;;;;;;;;4932057;29;20356;-70
2022/04/24 00:46:13;;;;;;;25.95;5.18;;;;;;;;;;4935236;29;20451;-72
2022/04/24 00:48:41;;;;;;;19.88;5.03;;;;;;;;;;4934492;29;20082;-64
2022/04/24 00:51:11;;;;;;;22.45;5.38;;;;;;;;;;4935407;29;20139;-64
2022/04/24 00:53:37;;;;;;;22.77;5.20;;;;;;;;;;4935838;29;20035;-70
2022/04/24 00:56:05;;;;;;;18.75;5.15;;;;;;;;;;4935843;29;20039;-63
2022/04/24 00:58:32;;;;;;;21.75;4.70;;;;;;;;;;4934138;29;20130;-67
2022/04/24 01:00:58;;;;;;;17.45;4.65;;;;;;;;;;4936050;29;20434;-74
2022/04/24 01:03:24;;;;;;;18.20;5.10;;;;;;;;;;4935085;29;20038;-72
2022/04/24 01:05:50;;;;;;;13.80;4.50;;;;;;;;;;4935599;29;20024;-71
2022/04/24 01:08:16;;;;;;;24.33;4.88;;;;;;;;;;4935400;29;20122;-67
2022/04/24 01:10:42;;;;;;;21.70;5.25;;;;;;;;;;4935899;29;20167;-68
2022/04/24 01:13:08;;;;;;;21.33;5.40;;;;;;;;;;4935366;29;20086;-75
2022/04/24 01:15:34;;;;;;;19.90;5.80;;;;;;;;;;4935962;29;20028;-64
2022/04/24 01:18:00;;;;;;;16.25;5.38;;;;;;;;;;4935859;29;20043;-73
2022/04/24 01:20:26;;;;;;;21.90;5.47;;;;;;;;;;4935502;29;20024;-74
2022/04/24 01:22:53;;;;;;;18.80;5.03;;;;;;;;;;4935487;29;20395;-72
2022/04/24 01:25:19;;;;;;;12.43;4.80;;;;;;;;;;4935432;29;20032;-63
2022/04/24 01:27:45;;;;;;;14.27;4.80;;;;;;;;;;4935467;29;20388;-69
2022/04/24 01:30:11;;;;;;;16.13;5.30;;;;;;;;;;4935634;29;20035;-73
2022/04/24 01:32:40;;;;;;;19.88;5.50;;;;;;;;;;4935523;29;20078;-72
2022/04/24 01:35:07;;;;;;;14.48;5.53;;;;;;;;;;4935698;29;20056;-73
2022/04/24 01:37:33;;;;;;;21.60;5.47;;;;;;;;;;4935441;29;20032;-75
2022/04/24 01:39:59;;;;;;;18.40;5.53;;;;;;;;;;4935745;29;20027;-74
2022/04/24 01:42:25;;;;;;;13.57;4.43;;;;;;;;;;4931633;29;20026;-74
2022/04/24 01:44:51;;;;;;;18.50;6.10;;;;;;;;;;4933820;29;20476;-72
2022/04/24 01:47:17;;;;;;;24.98;5.38;;;;;;;;;;4933892;29;20090;-69
2022/04/24 01:49:43;;;;;;;16.20;5.43;;;;;;;;;;4934095;29;20431;-73
2022/04/24 01:52:09;;;;;;;14.57;5.05;;;;;;;;;;4933690;29;20514;-74
2022/04/24 01:54:35;;;;;;;19.27;5.32;;;;;;;;;;4934212;29;20039;-67
2022/04/24 01:57:01;;;;;;;19.30;5.22;;;;;;;;;;4948813;28;20040;-70
2022/04/24 01:59:27;;;;;;;16.15;4.38;;;;;;;;;;4934497;29;20032;-71
2022/04/24 02:01:53;;;;;;;18.05;5.05;;;;;;;;;;4934286;29;20076;-71
2022/04/24 02:04:22;;;;;;;16.83;5.63;;;;;;;;;;4934271;29;20134;-70
2022/04/24 02:06:49;;;;;;;22.55;7.57;;;;;;;;;;4934040;29;20506;-74
2022/04/24 02:09:15;;;;;;;24.83;8.85;;;;;;;;;;4936681;29;20078;-72
2022/04/24 02:11:41;;;;;;;18.75;5.45;;;;;;;;;;4952919;29;20050;-72
2022/04/24 02:14:07;;;;;;;18.20;4.55;;;;;;;;;;4915493;29;20380;-74
2022/04/24 02:16:33;;;;;;;23.08;4.40;;;;;;;;;;4928424;29;20027;-65
2022/04/24 02:18:59;;;;;;;15.07;4.65;;;;;;;;;;4933977;29;20083;-74
2022/04/24 02:21:27;;;;;;;18.20;4.90;;;;;;;;;;4934124;29;20032;-73
2022/04/24 02:23:53;;;;;;;23.70;5.57;;;;;;;;;;4934297;29;20027;-73
2022/04/24 02:26:19;;;;;;;16.40;4.85;;;;;;;;;;4934716;29;20024;-72
2022/04/24 02:28:45;;;;;;;20.30;4.88;;;;;;;;;;4934177;29;20111;-73
2022/04/24 02:31:11;;;;;;;16.17;4.80;;;;;;;;;;4933668;29;20051;-73
2022/04/24 02:33:36;;;;;;;13.85;4.50;;;;;;;;;;4933951;29;20036;-70
2022/04/24 02:36:03;;;;;;;18.58;5.63;;;;;;;;;;4934337;29;20093;-69
2022/04/24 02:38:29;;;;;;;14.25;4.82;;;;;;;;;;4936181;28;20035;-71
2022/04/24 02:40:55;;;;;;;16.95;5.25;;;;;;;;;;4937764;29;20461;-71
2022/04/24 02:43:21;;;;;;;17.92;4.88;;;;;;;;;;4937882;29;20119;-72
2022/04/24 02:45:47;;;;;;;14.50;5.05;;;;;;;;;;4937777;29;20039;-74
2022/04/24 02:48:13;;;;;;;18.13;5.05;;;;;;;;;;4937595;29;20036;-73
2022/04/24 02:50:42;;;;;;;19.42;5.43;;;;;;;;;;4937528;29;20035;-72
2022/04/24 02:53:07;;;;;;;13.50;5.15;;;;;;;;;;4937506;29;20036;-73
2022/04/24 02:55:33;;;;;;;17.58;4.97;;;;;;;;;;4937402;29;20036;-66
2022/04/24 02:57:59;;;;;;;17.48;5.25;;;;;;;;;;4937653;29;20375;-71
2022/04/24 03:00:39;;;;;;;16.85;5.40;;;;;;;;;;4936949;29;20036;-72
2022/04/24 03:03:07;;;;;;;14.35;5.00;;;;;;;;;;4937067;29;20046;-73
2022/04/24 03:05:33;;;;;;;20.50;5.22;;;;;;;;;;4937163;29;20479;-72
2022/04/24 03:07:59;;;;;;;16.15;4.70;;;;;;;;;;4937191;29;20035;-73
2022/04/24 03:10:26;;;;;;;21.05;5.18;;;;;;;;;;4936793;29;20463;-71
2022/04/24 03:12:52;;;;;;;16.30;5.07;;;;;;;;;;4937115;29;20046;-71
2022/04/24 03:15:17;;;;;;;13.73;4.18;;;;;;;;;;4937288;29;20024;-71
2022/04/24 03:17:43;;;;;;;18.35;4.60;;;;;;;;;;4936813;29;20058;-73
2022/04/24 03:20:11;;;;;;;17.63;4.45;;;;;;;;;;4937227;29;20459;-72
2022/04/24 03:22:37;;;;;;;17.75;4.47;;;;;;;;;;4936990;29;20051;-72
2022/04/24 03:25:09;;;;;;;12.05;3.75;;;;;;;;;;4936773;29;20391;-71
2022/04/24 03:27:35;;;;;;;11.60;4.75;;;;;;;;;;4936274;29;20032;-74
2022/04/24 03:30:02;;;;;;;14.23;4.45;;;;;;;;;;4936908;29;20035;-72
2022/04/24 03:32:31;;;;;;;28.67;6.10;;;;;;;;;;4938544;29;20051;-68
2022/04/24 03:34:57;;;;;;;49.58;17.35;;;;;;;;;;4955902;29;20094;-72
2022/04/24 03:37:23;;;;;;;39.13;13.05;;;;;;;;;;4955871;28;20378;-73
2022/04/24 03:39:49;;;;;;;25.02;9.30;;;;;;;;;;4955953;28;20046;-70
2022/04/24 03:42:15;;;;;;;21.40;7.00;;;;;;;;;;4958616;28;20479;-72
2022/04/24 03:44:41;;;;;;;23.77;9.35;;;;;;;;;;4972863;28;20058;-73
2022/04/24 03:47:07;;;;;;;28.67;8.75;;;;;;;;;;4974635;28;20027;-73
2022/04/24 03:49:33;;;;;;;24.20;8.02;;;;;;;;;;4974948;28;20387;-74
2022/04/24 03:51:59;;;;;;;19.95;7.10;;;;;;;;;;4975030;28;20051;-75
2022/04/24 03:54:25;;;;;;;24.27;8.75;;;;;;;;;;4974656;28;20481;-71
2022/04/24 03:56:51;;;;;;;23.90;7.60;;;;;;;;;;4974062;28;20505;-69
2022/04/24 03:59:16;;;;;;;23.80;7.05;;;;;;;;;;4974377;28;20043;-69
2022/04/24 04:01:42;;;;;;;18.90;7.10;;;;;;;;;;4974656;28;20066;-66
2022/04/24 04:04:08;;;;;;;19.25;6.95;;;;;;;;;;4974653;28;20118;-72
2022/04/24 04:06:34;;;;;;;19.15;5.55;;;;;;;;;;4974513;28;20045;-69
2022/04/24 04:09:00;;;;;;;15.80;5.60;;;;;;;;;;4989950;28;20047;-74
2022/04/24 04:11:28;;;;;;;24.48;6.40;;;;;;;;;;4978288;28;20043;-76
2022/04/24 04:13:54;;;;;;;12.43;6.18;;;;;;;;;;4955800;28;20457;-79
2022/04/24 04:16:20;;;;;;;15.98;5.85;;;;;;;;;;4953785;28;20059;-77
2022/04/24 04:18:45;;;;;;;18.38;5.72;;;;;;;;;;4953927;28;20478;-73
2022/04/24 04:21:11;;;;;;;19.92;6.07;;;;;;;;;;4954089;28;20031;-71
2022/04/24 04:23:37;;;;;;;23.45;6.75;;;;;;;;;;4954139;28;20043;-78
2022/04/24 04:26:03;;;;;;;17.27;5.57;;;;;;;;;;4954107;28;20027;-76
2022/04/24 04:28:28;;;;;;;22.15;6.75;;;;;;;;;;4953891;28;20090;-78
2022/04/24 04:30:54;;;;;;;22.98;7.90;;;;;;;;;;4954437;28;20106;-77
2022/04/24 04:33:20;;;;;;;19.80;8.88;;;;;;;;;;4955746;28;20062;-78
2022/04/24 04:35:46;;;;;;;17.80;6.18;;;;;;;;;;4954090;28;20027;-77
2022/04/24 04:38:14;;;;;;;18.45;5.97;;;;;;;;;;4954262;28;20039;-77
2022/04/24 04:40:39;;;;;;;18.92;6.13;;;;;;;;;;4954332;28;20023;-74
2022/04/24 04:43:05;;;;;;;25.05;7.13;;;;;;;;;;4953962;28;20027;-71
2022/04/24 04:45:31;;;;;;;35.95;23.90;;;;;;;;;;4955556;28;20023;-77
2022/04/24 04:47:57;;;;;;;48.92;31.55;;;;;;;;;;4955240;28;20502;-77
2022/04/24 04:50:22;;;;;;;51.75;31.88;;;;;;;;;;4955607;28;20023;-78
2022/04/24 04:52:48;;;;;;;50.75;29.00;;;;;;;;;;4955625;28;20058;-77
2022/04/24 04:55:14;;;;;;;45.38;28.63;;;;;;;;;;4955271;28;20035;-78
2022/04/24 04:57:40;;;;;;;46.55;29.08;;;;;;;;;;4955202;29;20046;-78
2022/04/24 05:00:07;;;;;;;38.20;23.13;;;;;;;;;;4955373;28;20133;-74
2022/04/24 05:02:37;;;;;;;34.45;19.95;;;;;;;;;;4956657;28;20034;-77
2022/04/24 05:05:07;;;;;;;22.92;11.40;;;;;;;;;;4956885;28;20118;-68
2022/04/24 05:07:33;;;;;;;20.05;7.53;;;;;;;;;;4955212;28;20027;-78
2022/04/24 05:09:58;;;;;;;20.92;10.30;;;;;;;;;;4955283;28;20082;-77
2022/04/24 05:12:28;;;;;;;28.63;12.25;;;;;;;;;;4954525;28;20388;-76
2022/04/24 05:15:05;;;;;;;23.58;10.07;;;;;;;;;;4954964;28;20122;-76
2022/04/24 05:17:34;;;;;;;21.23;10.23;;;;;;;;;;4955113;28;20035;-76
2022/04/24 05:20:01;;;;;;;24.70;9.93;;;;;;;;;;4955098;28;20031;-77
2022/04/24 05:22:27;;;;;;;20.13;8.20;;;;;;;;;;4955082;28;20431;-76
2022/04/24 05:24:53;;;;;;;18.08;7.30;;;;;;;;;;4955135;28;20031;-76
2022/04/24 05:27:19;;;;;;;21.60;11.32;;;;;;;;;;4955143;29;20035;-77
2022/04/24 05:29:46;;;;;;;21.00;11.40;;;;;;;;;;4954895;28;20077;-76
2022/04/24 05:32:12;;;;;;;22.08;10.43;;;;;;;;;;4954615;28;20486;-74
2022/04/24 05:34:39;;;;;;;28.73;15.02;;;;;;;;;;4954750;28;20154;-77
2022/04/24 05:37:05;;;;;;;25.52;16.35;;;;;;;;;;4954723;28;20038;-75
2022/04/24 05:39:31;;;;;;;36.53;19.42;;;;;;;;;;4954398;28;20034;-76
2022/04/24 05:41:57;;;;;;;35.40;19.73;;;;;;;;;;4954693;28;20402;-76
2022/04/24 05:44:22;;;;;;;35.00;19.83;;;;;;;;;;4954440;28;20382;-75
2022/04/24 05:46:48;;;;;;;29.58;15.60;;;;;;;;;;4954408;28;20043;-74
2022/04/24 05:49:14;;;;;;;33.45;19.13;;;;;;;;;;4954544;28;20046;-77
2022/04/24 05:51:40;;;;;;;45.28;19.15;;;;;;;;;;4954772;28;20427;-77
2022/04/24 05:54:06;;;;;;;30.05;13.90;;;;;;;;;;4954588;28;20501;-77
2022/04/24 05:56:31;;;;;;;26.30;13.23;;;;;;;;;;4954454;28;20027;-75
2022/04/24 05:58:57;;;;;;;24.85;8.75;;;;;;;;;;4954442;28;20027;-77
2022/04/24 06:01:23;;;;;;;22.15;8.45;;;;;;;;;;4954243;29;20046;-77
2022/04/24 06:03:49;;;;;;;25.88;9.88;;;;;;;;;;4954440;29;20023;-77
2022/04/24 06:06:16;;;;;;;40.45;19.10;;;;;;;;;;4954445;28;20035;-73
2022/04/24 06:08:43;;;;;;;33.35;15.70;;;;;;;;;;4954306;28;20037;-76
2022/04/24 06:11:09;;;;;;;31.10;13.98;;;;;;;;;;4954399;28;20035;-77
2022/04/24 06:13:35;;;;;;;29.75;13.95;;;;;;;;;;4956166;28;20031;-76
2022/04/24 06:16:01;;;;;;;28.30;12.88;;;;;;;;;;4957887;29;20035;-77
2022/04/24 06:18:28;;;;;;;27.08;15.35;;;;;;;;;;4957828;28;20129;-75
2022/04/24 06:20:54;;;;;;;25.17;12.25;;;;;;;;;;4957584;28;20035;-74
2022/04/24 06:23:20;;;;;;;29.33;13.00;;;;;;;;;;4957802;28;20498;-75
2022/04/24 06:25:46;;;;;;;23.48;12.27;;;;;;;;;;4957662;28;20027;-78
2022/04/24 06:28:13;;;;;;;23.63;12.07;;;;;;;;;;4957376;28;20050;-72
2022/04/24 06:30:42;;;;;;;22.67;10.80;;;;;;;;;;4958104;28;20035;-69
2022/04/24 06:33:09;;;;;;;17.08;7.03;;;;;;;;;;4957487;28;20024;-70
2022/04/24 06:35:34;;;;;;;16.85;6.93;;;;;;;;;;4957672;28;20031;-70
2022/04/24 06:38:00;;;;;;;29.63;8.70;;;;;;;;;;4957647;28;20423;-70
2022/04/24 06:40:27;;;;;;;20.02;7.93;;;;;;;;;;4957832;28;20047;-70
2022/04/24 06:42:54;;;;;;;24.08;8.27;;;;;;;;;;4955242;29;20034;-73
2022/04/24 06:45:25;;;;;;;27.63;9.05;;;;;;;;;;4972226;28;20518;-70
2022/04/24 06:47:55;;;;;;;25.23;10.40;;;;;;;;;;4957447;28;20039;-74
2022/04/24 06:50:22;;;;;;;27.00;12.35;;;;;;;;;;4957089;28;20542;-72
2022/04/24 06:53:03;;;;;;;25.60;12.52;;;;;;;;;;4956796;28;20557;-71
2022/04/24 06:55:30;;;;;;;26.42;14.15;;;;;;;;;;4957097;28;20110;-69
2022/04/24 06:57:57;;;;;;;34.70;15.45;;;;;;;;;;4956990;28;20038;-69
2022/04/24 07:00:24;;;;;;;29.15;14.95;;;;;;;;;;4956591;28;20035;-72
2022/04/24 07:02:51;;;;;;;35.42;17.13;;;;;;;;;;4956480;29;20328;-69
2022/04/24 07:05:19;;;;;;;35.75;17.55;;;;;;;;;;4957421;28;20036;-69
2022/04/24 07:07:44;;;;;;;35.05;18.75;;;;;;;;;;4957014;28;20379;-76
2022/04/24 07:10:10;;;;;;;35.75;19.83;;;;;;;;;;4956602;28;20039;-77
2022/04/24 07:12:51;;;;;;;45.08;23.13;;;;;;;;;;4956881;28;20313;-69
2022/04/24 07:15:18;;;;;;;51.70;27.40;;;;;;;;;;4956511;28;20047;-70
2022/04/24 07:17:46;;;;;;;48.90;28.00;;;;;;;;;;4956547;28;20035;-72
2022/04/24 07:20:13;;;;;;;55.83;33.17;;;;;;;;;;4956751;28;20043;-74
2022/04/24 07:22:49;;;;;;;57.33;33.08;;;;;;;;;;4958441;28;20063;-76
2022/04/24 07:25:17;;;;;;;53.65;33.88;;;;;;;;;;4956934;28;20056;-72
2022/04/24 07:27:44;;;;;;;58.78;34.83;;;;;;;;;;4956720;28;20027;-75
2022/04/24 07:30:14;;;;;;;55.65;34.75;;;;;;;;;;4971527;28;20394;-78
2022/04/24 07:32:50;;;;;;;59.55;34.70;;;;;;;;;;4971530;28;20039;-76
2022/04/24 07:35:18;;;;;;;56.25;35.15;;;;;;;;;;4956069;28;20043;-74
2022/04/24 07:37:45;;;;;;;58.63;35.25;;;;;;;;;;4956278;28;20024;-75
2022/04/24 07:40:13;;;;;;;48.60;28.23;;;;;;;;;;4956299;28;20170;-72
2022/04/24 07:42:48;;;;;;;46.35;26.10;;;;;;;;;;4956765;28;20023;-72
2022/04/24 07:45:22;;;;;;;45.45;25.77;;;;;;;;;;4956004;28;20050;-75
2022/04/24 07:47:52;;;;;;;44.72;24.90;;;;;;;;;;4955827;28;20031;-71
2022/04/24 07:50:21;;;;;;;42.13;27.25;;;;;;;;;;4955909;28;20035;-75
2022/04/24 07:52:48;;;;;;;43.67;26.67;;;;;;;;;;4955816;28;20035;-77
2022/04/24 07:55:19;;;;;;;42.15;26.65;;;;;;;;;;4956220;28;20053;-76
2022/04/24 07:57:49;;;;;;;50.20;31.30;;;;;;;;;;4955847;28;20033;-77
2022/04/24 08:00:17;;;;;;;45.58;28.05;;;;;;;;;;4955319;28;20043;-75
2022/04/24 08:02:49;;;;;;;42.75;24.48;;;;;;;;;;4951602;28;20432;-76
2022/04/24 08:05:22;;;;;;;64.97;38.30;;;;;;;;;;4950011;28;20082;-72
2022/04/24 08:07:48;;;;;;;55.38;34.58;;;;;;;;;;4952165;28;20037;-74
2022/04/24 08:10:14;;;;;;;55.28;35.78;;;;;;;;;;4954231;28;20039;-76
2022/04/24 08:12:40;;;;;;;66.57;39.38;;;;;;;;;;4954343;28;20023;-71
2022/04/24 08:15:07;;;;;;;57.47;38.00;;;;;;;;;;4953250;28;20247;-75
2022/04/24 08:17:32;;;;;;;55.05;37.47;;;;;;;;;;4954361;28;20118;-69
2022/04/24 08:19:58;;;;;;;59.35;33.33;;;;;;;;;;4955157;28;20082;-76
2022/04/24 08:22:24;;;;;;;53.42;33.90;;;;;;;;;;4954971;28;20062;-75
2022/04/24 08:24:50;;;;;;;65.22;35.85;;;;;;;;;;4955451;28;20423;-76
2022/04/24 08:27:15;;;;;;;59.75;36.30;;;;;;;;;;4955714;29;20118;-72
2022/04/24 08:29:41;;;;;;;57.05;36.50;;;;;;;;;;4955124;28;20027;-70
2022/04/24 08:32:07;;;;;;;57.67;32.33;;;;;;;;;;4953790;28;20090;-74
2022/04/24 08:34:33;;;;;;;44.10;26.77;;;;;;;;;;4954911;28;20505;-75
2022/04/24 08:36:59;;;;;;;46.17;32.22;;;;;;;;;;4953977;28;20387;-75
2022/04/24 08:39:25;;;;;;;52.17;31.90;;;;;;;;;;4953878;28;20054;-76
2022/04/24 08:41:51;;;;;;;46.05;27.95;;;;;;;;;;4951673;28;20039;-73
2022/04/24 08:44:16;;;;;;;38.60;24.52;;;;;;;;;;4954230;28;20114;-68
2022/04/24 08:46:43;;;;;;;36.90;18.38;;;;;;;;;;4953783;28;20102;-70
2022/04/24 08:49:10;;;;;;;30.45;15.98;;;;;;;;;;4953525;28;20035;-75
2022/04/24 08:51:39;;;;;;;35.10;19.63;;;;;;;;;;4953441;28;20083;-73
2022/04/24 08:54:05;;;;;;;34.83;19.75;;;;;;;;;;4953583;28;20031;-73
2022/04/24 08:56:31;;;;;;;31.73;18.15;;;;;;;;;;4952209;29;20401;-70
2022/04/24 08:58:57;;;;;;;32.45;18.17;;;;;;;;;;4953179;28;20023;-68
2022/04/24 09:01:23;;;;;;;33.40;18.50;;;;;;;;;;4953537;28;20039;-75
2022/04/24 09:03:48;;;;;;;24.92;13.55;;;;;;;;;;4953524;28;20109;-72
2022/04/24 09:06:24;;;;;;;22.10;10.55;;;;;;;;;;4953741;28;20047;-70
2022/04/24 09:08:49;;;;;;;26.23;11.93;;;;;;;;;;4953710;28;20031;-72
2022/04/24 09:11:19;;;;;;;21.20;8.13;;;;;;;;;;4952907;28;20344;-78
2022/04/24 09:16:47;;;;;;;19.80;9.43;;;;;;;;;;4941600;28;20059;-75
2022/04/24 09:19:20;;;;;;;26.23;11.90;;;;;;;;;;4952748;29;20046;-76
2022/04/24 09:21:49;;;;;;;20.80;7.45;;;;;;;;;;4952237;28;20027;-76
2022/04/24 09:24:16;;;;;;;20.08;6.38;;;;;;;;;;4953540;28;20027;-77
2022/04/24 09:26:52;;;;;;;19.55;6.82;;;;;;;;;;4952876;28;20042;-76
2022/04/24 09:29:21;;;;;;;14.85;4.38;;;;;;;;;;4953390;28;20034;-71
2022/04/24 09:31:49;;;;;;;17.05;4.78;;;;;;;;;;4953526;28;20397;-71
2022/04/24 09:34:19;;;;;;;16.90;4.97;;;;;;;;;;4952404;29;20038;-70
2022/04/24 09:36:46;;;;;;;13.80;5.38;;;;;;;;;;4953528;28;20090;-68
2022/04/24 09:39:12;;;;;;;15.70;6.18;;;;;;;;;;4953396;28;20055;-78
2022/04/24 09:41:39;;;;;;;14.07;5.80;;;;;;;;;;4952774;28;20074;-74
2022/04/24 09:44:13;;;;;;;19.35;6.63;;;;;;;;;;4954285;29;20024;-77
2022/04/24 09:46:39;;;;;;;21.95;7.95;;;;;;;;;;4955860;28;20031;-74
2022/04/24 09:49:08;;;;;;;23.73;7.30;;;;;;;;;;4953278;29;20031;-79
2022/04/24 09:51:44;;;;;;;20.25;5.60;;;;;;;;;;4952920;28;20086;-77
2022/04/24 09:54:10;;;;;;;24.52;7.63;;;;;;;;;;4950220;28;20031;-78
2022/04/24 09:56:38;;;;;;;14.25;5.35;;;;;;;;;;4949353;28;20046;-73
2022/04/24 09:59:05;;;;;;;26.42;6.60;;;;;;;;;;4944993;28;20031;-74
2022/04/24 10:01:32;;;;;;;16.00;4.78;;;;;;;;;;4953162;28;20031;-75
2022/04/24 10:03:59;;;;;;;17.67;5.30;;;;;;;;;;4953451;28;20039;-72
2022/04/24 10:06:25;;;;;;;16.30;4.60;;;;;;;;;;4953406;28;20106;-76
2022/04/24 10:08:51;;;;;;;24.80;5.30;;;;;;;;;;4953078;28;20155;-76
2022/04/24 10:11:20;;;;;;;19.10;6.03;;;;;;;;;;4952872;29;20540;-76
2022/04/24 10:13:48;;;;;;;25.30;10.13;;;;;;;;;;4952927;28;20554;-70
2022/04/24 10:16:35;;;;;;;17.70;6.07;;;;;;;;;;4952326;28;20027;-73
2022/04/24 10:19:28;;;;;;;18.25;6.75;;;;;;;;;;4952523;29;20039;-76
2022/04/24 10:22:12;;;;;;;18.95;6.32;;;;;;;;;;4953665;28;20491;-74
2022/04/24 10:24:43;;;;;;;22.60;6.25;;;;;;;;;;4952518;28;20505;-75
2022/04/24 10:27:11;;;;;;;20.88;5.80;;;;;;;;;;4952550;29;20061;-70
2022/04/24 10:29:59;;;;;;;20.67;4.57;;;;;;;;;;4952753;28;20038;-70
2022/04/24 10:32:27;;;;;;;13.95;4.30;;;;;;;;;;4949623;28;20035;-69
2022/04/24 10:34:53;;;;;;;21.35;4.68;;;;;;;;;;4952210;29;20035;-76
2022/04/24 10:37:27;;;;;;;19.80;5.40;;;;;;;;;;4952549;28;20039;-75
2022/04/24 10:39:58;;;;;;;14.52;3.88;;;;;;;;;;4967426;28;20118;-70
2022/04/24 10:42:36;;;;;;;17.77;3.75;;;;;;;;;;4952457;28;20036;-74
2022/04/24 10:45:05;;;;;;;23.70;3.78;;;;;;;;;;4953445;29;20070;-74
2022/04/24 10:47:46;;;;;;;19.85;4.93;;;;;;;;;;4951973;28;20111;-72
2022/04/24 10:50:13;;;;;;;14.98;3.78;;;;;;;;;;4952581;29;20039;-71
2022/04/24 10:52:43;;;;;;;16.90;4.63;;;;;;;;;;4952404;28;20058;-76
2022/04/24 10:55:14;;;;;;;15.63;4.10;;;;;;;;;;4951874;29;20502;-69
2022/04/24 10:57:44;;;;;;;23.25;4.78;;;;;;;;;;4952840;28;20038;-68
2022/04/24 11:00:16;;;;;;;16.25;4.13;;;;;;;;;;4954898;28;20459;-69
2022/04/24 11:02:43;;;;;;;14.80;3.67;;;;;;;;;;4955238;28;20070;-74
2022/04/24 11:05:11;;;;;;;14.50;4.05;;;;;;;;;;4952500;28;20554;-74
2022/04/24 11:07:38;;;;;;;16.02;4.65;;;;;;;;;;4955593;28;20039;-71
2022/04/24 11:10:06;;;;;;;11.43;3.33;;;;;;;;;;4955502;28;20031;-73
2022/04/24 11:12:33;;;;;;;17.48;6.20;;;;;;;;;;4955211;28;20047;-73
2022/04/24 11:15:09;;;;;;;14.88;4.00;;;;;;;;;;4955833;28;20374;-72
2022/04/24 11:17:36;;;;;;;10.38;3.88;;;;;;;;;;4953931;28;20027;-73
2022/04/24 11:20:14;;;;;;;13.25;3.63;;;;;;;;;;4949407;28;20058;-71
2022/04/24 11:22:58;;;;;;;14.57;3.53;;;;;;;;;;4955152;29;20039;-74
2022/04/24 11:25:27;;;;;;;14.00;3.30;;;;;;;;;;4955635;29;20539;-77
2022/04/24 11:27:56;;;;;;;12.68;3.42;;;;;;;;;;4955990;29;20047;-75
2022/04/24 11:30:31;;;;;;;11.23;3.00;;;;;;;;;;4955254;29;20035;-74
2022/04/24 11:33:05;;;;;;;14.25;3.55;;;;;;;;;;4954630;28;20070;-71
2022/04/24 11:35:35;;;;;;;11.73;3.13;;;;;;;;;;4956011;28;20478;-75
2022/04/24 11:38:02;;;;;;;13.80;2.85;;;;;;;;;;4955394;28;20035;-73
2022/04/24 11:40:33;;;;;;;19.33;3.58;;;;;;;;;;4955500;28;20049;-74
2022/04/24 11:43:06;;;;;;;9.75;3.05;;;;;;;;;;4953406;28;20118;-76
2022/04/24 11:51:16;;;;;;;14.43;3.40;;;;;;;;;;4951166;29;20050;-72
2022/04/24 11:53:43;;;;;;;12.75;3.22;;;;;;;;;;4954544;29;20490;-77
2022/04/24 11:56:11;;;;;;;15.23;3.28;;;;;;;;;;4955240;29;20027;-76
2022/04/24 11:58:39;;;;;;;19.13;4.07;;;;;;;;;;4955238;28;20031;-76
2022/04/24 12:01:10;;;;;;;13.07;3.15;;;;;;;;;;4954655;28;20119;-73
2022/04/24 12:03:37;;;;;;;14.10;3.00;;;;;;;;;;4954750;28;20502;-74
2022/04/24 12:06:10;;;;;;;10.13;3.13;;;;;;;;;;4953952;28;20027;-77
2022/04/24 12:08:43;;;;;;;14.68;3.30;;;;;;;;;;4954191;29;20043;-76
2022/04/24 12:11:27;;;;;;;14.45;2.58;;;;;;;;;;4952358;28;20126;-78
2022/04/24 12:14:00;;;;;;;8.30;2.38;;;;;;;;;;4953895;29;20062;-75
2022/04/24 12:16:25;;;;;;;20.20;3.58;;;;;;;;;;4935061;29;20553;-73
2022/04/24 12:18:58;;;;;;;10.32;2.80;;;;;;;;;;4936396;28;20035;-75
2022/04/24 12:21:25;;;;;;;;;;;;;;;;;;4955080;28;20039;-72
2022/04/24 12:23:52;;;;;;;11.27;2.47;;;;;;;;;;4953382;29;19914;-72
2022/04/24 12:26:18;;;;;;;13.63;3.22;;;;;;;;;;4953869;28;20078;-74
2022/04/24 12:28:44;;;;;;;15.20;3.33;;;;;;;;;;4953409;28;20031;-77
2022/04/24 12:31:25;;;;;;;12.70;2.78;;;;;;;;;;4954380;28;20066;-75
2022/04/24 12:33:53;;;;;;;11.13;2.90;;;;;;;;;;4960898;28;20062;-73
2022/04/24 12:36:19;;;;;;;14.02;2.83;;;;;;;;;;4955192;28;20188;-70
2022/04/24 12:38:59;;;;;;;12.07;2.47;;;;;;;;;;4948493;28;20114;-76
2022/04/24 12:41:28;;;;;;;12.80;2.58;;;;;;;;;;4950139;28;20035;-71
2022/04/24 12:43:58;;;;;;;16.67;2.35;;;;;;;;;;4953861;29;20027;-71
2022/04/24 12:46:24;;;;;;;14.63;2.60;;;;;;;;;;4953587;28;20122;-70
2022/04/24 12:48:52;;;;;;;14.43;2.45;;;;;;;;;;4953922;28;20030;-73
2022/04/24 12:51:21;;;;;;;13.00;2.28;;;;;;;;;;4953983;28;20402;-72
2022/04/24 12:53:48;;;;;;;12.52;2.90;;;;;;;;;;4951016;28;20035;-73
2022/04/24 12:56:14;;;;;;;14.73;2.47;;;;;;;;;;4952815;29;20542;-75
2022/04/24 12:58:40;;;;;;;11.60;2.60;;;;;;;;;;4953722;29;20030;-76
2022/04/24 13:01:07;;;;;;;13.80;2.33;;;;;;;;;;4953470;28;20040;-75
2022/04/24 13:03:34;;;;;;;15.63;2.70;;;;;;;;;;4953759;28;20102;-77
2022/04/24 13:06:00;;;;;;;15.93;2.40;;;;;;;;;;4952811;29;20126;-71
2022/04/24 13:08:26;;;;;;;13.43;3.10;;;;;;;;;;4953991;28;20026;-72
2022/04/24 13:10:52;;;;;;;12.02;2.90;;;;;;;;;;4953935;28;20039;-77
2022/04/24 13:13:19;;;;;;;14.35;2.72;;;;;;;;;;4953876;28;20401;-76
2022/04/24 13:18:06;;;;;;;11.98;2.47;;;;;;;;;;4954263;28;20035;-76
2022/04/24 13:18:31;;;;;;;17.05;3.00;;;;;;;;;;4953958;28;20043;-74
2022/04/24 13:20:56;;;;;;;13.90;3.28;;;;;;;;;;4953180;28;20522;-73
2022/04/24 13:23:22;;;;;;;14.80;3.10;;;;;;;;;;4949854;28;20043;-71
2022/04/24 13:25:50;;;;;;;18.52;2.95;;;;;;;;;;4952895;28;20027;-75
2022/04/24 13:28:16;;;;;;;12.13;2.42;;;;;;;;;;4953407;28;20565;-76
2022/04/24 13:30:46;;;;;;;14.90;3.35;;;;;;;;;;4953674;28;20110;-75
2022/04/24 13:33:14;;;;;;;12.60;2.47;;;;;;;;;;4953422;28;20387;-72
2022/04/24 13:35:39;;;;;;;12.63;2.53;;;;;;;;;;4953534;28;20102;-74
2022/04/24 13:38:17;;;;;;;12.95;2.58;;;;;;;;;;4953936;28;20474;-75
2022/04/24 13:40:54;;;;;;;12.73;3.20;;;;;;;;;;4952956;28;20035;-75
2022/04/24 13:43:22;;;;;;;14.00;2.10;;;;;;;;;;4953663;28;20035;-77
2022/04/24 13:45:50;;;;;;;12.68;2.53;;;;;;;;;;4952371;28;20113;-73
2022/04/24 13:48:16;;;;;;;15.15;3.15;;;;;;;;;;4952617;28;20479;-75
2022/04/24 13:50:42;;;;;;;14.32;2.88;;;;;;;;;;4953772;29;20051;-77
2022/04/24 13:53:08;;;;;;;15.38;3.28;;;;;;;;;;4952773;29;20041;-74
2022/04/24 13:55:35;;;;;;;13.80;3.15;;;;;;;;;;4953546;29;20087;-77
2022/04/24 13:58:03;;;;;;;14.38;2.88;;;;;;;;;;4952893;28;20497;-72
2022/04/24 14:00:31;;;;;;;10.00;2.50;;;;;;;;;;4953185;28;20534;-76
2022/04/24 14:02:57;;;;;;;18.05;2.70;;;;;;;;;;4953762;29;20081;-75
2022/04/24 14:05:24;;;;;;;10.50;2.30;;;;;;;;;;4953497;29;20078;-75
2022/04/24 14:07:50;;;;;;;12.07;2.65;;;;;;;;;;4952937;28;20035;-79
2022/04/24 14:10:17;;;;;;;11.38;2.95;;;;;;;;;;4950325;29;20042;-75
2022/04/24 14:12:42;;;;;;;7.15;2.63;;;;;;;;;;4952645;28;20039;-78
2022/04/24 14:15:09;;;;;;;9.07;2.50;;;;;;;;;;4952995;29;20027;-75
2022/04/24 14:17:35;;;;;;;14.80;2.75;;;;;;;;;;4952721;29;20043;-74
2022/04/24 14:20:02;;;;;;;10.77;2.80;;;;;;;;;;4953337;28;20027;-76
2022/04/24 14:22:28;;;;;;;4.88;1.85;;;;;;;;;;4953278;29;20402;-75
2022/04/24 14:24:54;;;;;;;11.98;2.20;;;;;;;;;;4952818;29;20102;-75
2022/04/24 14:27:20;;;;;;;9.75;2.17;;;;;;;;;;4953023;29;20510;-75
2022/04/24 14:29:46;;;;;;;9.68;2.00;;;;;;;;;;4953286;29;20028;-76
2022/04/24 14:32:14;;;;;;;13.23;2.63;;;;;;;;;;4952544;29;20043;-76
2022/04/24 14:34:44;;;;;;;11.85;2.70;;;;;;;;;;4953954;28;20139;-74
2022/04/24 14:37:12;;;;;;;12.85;2.95;;;;;;;;;;4957038;29;20035;-76
2022/04/24 14:39:39;;;;;;;10.65;2.70;;;;;;;;;;4955557;28;20070;-76